Time;durP1;ratioP1;P1;durP2;ratioP2;P2;SDS_P1;SDS_P2;PMS_P1;PMS_P2;Temp;Humidity;BMP_temperature;BMP_pressure;BME280_temperature;BME280_humidity;BME280_pressure;Samples;Min_cycle;Max_cycle;Signal;HPM_P1;HPM_P2
2023/08/30 00:01:40;;;;;;;;;;;;;;;29.70;41.21;100299.63;5047618;28;19974;-87
2023/08/30 00:04:05;;;;;;;;;;;;;;;29.58;41.19;100295.50;5070475;28;19913;-85
2023/08/30 00:06:31;;;;;;;;;;;;;;;29.62;41.20;100289.09;5042538;28;19917;-88
2023/08/30 00:08:58;;;;;;;;;;;;;;;29.55;41.40;100293.81;5031988;28;20393;-87
2023/08/30 00:11:23;;;;;;;;;;;;;;;29.65;41.29;100283.59;5037200;28;19917;-87
2023/08/30 00:13:49;;;;;;;;;;;;;;;29.62;41.20;100289.97;5047679;28;19917;-87
2023/08/30 00:16:16;;;;;;;;;;;;;;;29.61;41.40;100285.53;5031006;28;19996;-87
2023/08/30 00:18:42;;;;;;;;;;;;;;;29.64;41.17;100282.72;5044733;28;19913;-87
2023/08/30 00:21:07;;;;;;;;;;;;;;;29.60;41.39;100281.06;5066933;28;20413;-87
2023/08/30 00:23:33;;;;;;;;;;;;;;;29.64;41.22;100282.72;5030914;28;19917;-87
2023/08/30 00:25:58;;;;;;;;;;;;;;;29.56;41.42;100286.59;5031500;28;19925;-86
2023/08/30 00:28:24;;;;;;;;;;;;;;;29.60;41.25;100277.50;5069946;28;20390;-87
2023/08/30 00:30:52;;;;;;;;;;;;;;;29.57;41.25;100277.59;5037814;28;20378;-86
2023/08/30 00:33:18;;;;;;;;;;;;;;;29.51;41.57;100277.81;5046850;28;19984;-86
2023/08/30 00:35:43;;;;;;;;;;;;;;;29.57;41.40;100278.50;5034979;28;19920;-86
2023/08/30 00:38:09;;;;;;;;;;;;;;;29.53;41.35;100281.34;5041399;28;20282;-86
2023/08/30 00:40:38;;;;;;;;;;;;;;;29.54;41.29;100283.09;5049862;28;19917;-85
2023/08/30 00:43:03;;;;;;;;;;;;;;;29.78;40.94;100281.41;5051813;28;19917;-86
2023/08/30 00:45:29;;;;;;;;;;;;;;;29.75;40.92;100277.03;5063427;28;20503;-87
2023/08/30 00:47:54;;;;;;;;;;;;;;;29.69;40.87;100279.88;5049686;28;20423;-87
2023/08/30 00:50:20;;;;;;;;;;;;;;;29.53;41.45;100275.97;5061098;28;20445;-87
2023/08/30 00:52:45;;;;;;;;;;;;;;;29.52;41.31;100271.50;5060937;28;20393;-88
2023/08/30 00:55:11;;;;;;;;;;;;;;;29.67;41.08;100270.97;5053171;28;20385;-87
2023/08/30 00:57:36;;;;;;;;;;;;;;;29.58;41.08;100263.22;5064949;28;19913;-87
2023/08/30 01:00:03;;;;;;;;;;;;;;;29.52;41.30;100269.66;5045836;28;19917;-87
2023/08/30 01:02:30;;;;;;;;;;;;;;;29.53;41.18;100275.97;5042213;28;19952;-86
2023/08/30 01:04:56;;;;;;;;;;;;;;;29.62;41.02;100260.38;5055196;28;19917;-87
2023/08/30 01:07:22;;;;;;;;;;;;;;;29.76;40.83;100268.03;5065194;28;19986;-87
2023/08/30 01:09:47;;;;;;;;;;;;;;;29.56;41.25;100267.78;5037934;28;19917;-87
2023/08/30 01:12:14;;;;;;;;;;;;;;;29.58;41.33;100269.47;5065292;28;20286;-87
2023/08/30 01:14:53;;;;;;;;;;;;;;;29.52;41.38;100266.09;5037374;28;19913;-88
2023/08/30 01:17:18;;;;;;;;;;;;;;;29.46;41.27;100275.25;5056928;28;19917;-88
2023/08/30 01:19:50;;;;;;;;;;;;;;;29.41;41.54;100267.31;5076819;28;19980;-87
2023/08/30 01:22:21;;;;;;;;;;;;;;;29.54;41.02;100269.63;5061534;28;19978;-86
2023/08/30 01:25:10;;;;;;;;;;;;;;;29.54;41.31;100267.81;5058982;28;20003;-86
2023/08/30 01:27:36;;;;;;;;;;;;;;;29.60;41.22;100264.94;5063924;28;19920;-86
2023/08/30 01:30:02;;;;;;;;;;;;;;;29.65;40.75;100267.47;5042001;28;20360;-88
2023/08/30 01:32:28;;;;;;;;;;;;;;;29.50;41.12;100268.84;5064518;28;20419;-88
2023/08/30 01:34:54;;;;;;;;;;;;;;;29.37;41.29;100267.47;5056738;28;19916;-85
2023/08/30 01:37:19;;;;;;;;;;;;;;;29.50;41.13;100274.22;5069224;28;20549;-85
2023/08/30 01:39:44;;;;;;;;;;;;;;;29.60;41.00;100269.44;5060863;28;19913;-85
2023/08/30 01:42:10;;;;;;;;;;;;;;;29.41;41.25;100267.31;5047432;28;20321;-85
2023/08/30 01:44:35;;;;;;;;;;;;;;;29.52;41.22;100272.38;5032527;28;20284;-85
2023/08/30 01:47:01;;;;;;;;;;;;;;;29.44;41.52;100274.41;5031374;28;19917;-85
2023/08/30 01:49:28;;;;;;;;;;;;;;;29.43;41.49;100272.66;5032463;28;19932;-86
2023/08/30 01:51:53;;;;;;;;;;;;;;;29.42;41.21;100281.66;5012959;28;19932;-86
2023/08/30 01:54:19;;;;;;;;;;;;;;;29.53;41.17;100276.81;5046382;28;19913;-86
2023/08/30 01:56:45;;;;;;;;;;;;;;;29.49;41.17;100275.16;5045386;28;19914;-86
2023/08/30 01:59:11;;;;;;;;;;;;;;;29.44;41.30;100277.09;5051834;28;19925;-86
2023/08/30 02:01:37;;;;;;;;;;;;;;;29.45;41.19;100273.50;5016825;28;20402;-86
2023/08/30 02:04:03;;;;;;;;;;;;;;;29.58;40.89;100265.91;5018206;28;19920;-86
2023/08/30 02:06:35;;;;;;;;;;;;;;;29.52;41.09;100266.09;5013681;28;20012;-86
2023/08/30 02:09:07;;;;;;;;;;;;;;;29.60;40.90;100272.13;5028911;28;20390;-86
2023/08/30 02:11:32;;;;;;;;;;;;;;;29.61;40.82;100273.88;5015259;28;20206;-86
2023/08/30 02:13:58;;;;;;;;;;;;;;;29.58;41.07;100274.84;5049994;28;20413;-88
2023/08/30 02:16:23;;;;;;;;;;;;;;;29.59;40.76;100271.25;5020528;28;20409;-87
2023/08/30 02:18:49;;;;;;;;;;;;;;;29.53;41.00;100266.06;5019050;28;19952;-86
2023/08/30 02:21:14;;;;;;;;;;;;;;;29.48;41.14;100259.06;5035865;28;20723;-86
2023/08/30 02:23:40;;;;;;;;;;;;;;;29.48;41.12;100257.25;5015644;28;20362;-84
2023/08/30 02:26:05;;;;;;;;;;;;;;;29.49;41.00;100258.16;5020197;28;20406;-85
2023/08/30 02:28:31;;;;;;;;;;;;;;;29.46;40.92;100252.84;5020834;28;20413;-83
2023/08/30 02:30:56;;;;;;;;;;;;;;;29.58;40.98;100258.72;5028143;28;19913;-85
2023/08/30 02:33:22;;;;;;;;;;;;;;;29.53;40.88;100259.81;5048180;28;20000;-85
2023/08/30 02:35:47;;;;;;;;;;;;;;;29.46;41.06;100251.03;5048114;28;20004;-85
2023/08/30 02:38:12;;;;;;;;;;;;;;;29.46;41.15;100253.72;5023450;28;19956;-86
2023/08/30 02:40:38;;;;;;;;;;;;;;;29.56;40.90;100247.13;5013749;28;19967;-86
2023/08/30 02:43:03;;;;;;;;;;;;;;;29.48;40.91;100248.31;5045378;28;20310;-85
2023/08/30 02:45:29;;;;;;;;;;;;;;;29.53;40.83;100249.06;5045138;28;20391;-86
2023/08/30 02:47:57;;;;;;;;;;;;;;;29.44;41.18;100252.91;5015138;28;19956;-85
2023/08/30 02:50:23;;;;;;;;;;;;;;;29.48;41.12;100243.78;5045198;28;19913;-85
2023/08/30 02:52:48;;;;;;;;;;;;;;;29.45;41.03;100249.28;5013379;28;19920;-85
2023/08/30 02:55:14;;;;;;;;;;;;;;;29.54;40.88;100245.41;5026024;28;19924;-86
2023/08/30 02:57:39;;;;;;;;;;;;;;;29.56;40.74;100243.56;5050602;28;19925;-85
2023/08/30 03:00:05;;;;;;;;;;;;;;;29.28;41.39;100246.25;5024378;28;19918;-85
2023/08/30 03:02:32;;;;;;;;;;;;;;;29.08;42.21;100253.09;5012678;28;19921;-85
2023/08/30 03:04:59;;;;;;;;;;;;;;;29.06;42.83;100248.69;5021667;28;19925;-85
2023/08/30 03:07:24;;;;;;;;;;;;;;;29.03;42.84;100249.69;5025598;28;19920;-86
2023/08/30 03:09:53;;;;;;;;;;;;;;;28.99;43.36;100248.00;5017132;28;20137;-86
2023/08/30 03:12:18;;;;;;;;;;;;;;;28.98;43.43;100255.19;5012909;28;20043;-84
2023/08/30 03:14:43;;;;;;;;;;;;;;;28.93;43.47;100251.75;5046889;28;20012;-86
2023/08/30 03:17:09;;;;;;;;;;;;;;;28.92;44.06;100254.50;5044756;28;19940;-84
2023/08/30 03:19:34;;;;;;;;;;;;;;;28.85;43.79;100258.28;5028782;28;20527;-84
2023/08/30 03:22:00;;;;;;;;;;;;;;;28.88;44.46;100255.53;5028958;28;20377;-85
2023/08/30 03:24:25;;;;;;;;;;;;;;;28.82;44.33;100256.56;5018960;28;20378;-84
2023/08/30 03:26:51;;;;;;;;;;;;;;;28.83;44.51;100258.34;5023721;28;20382;-84
2023/08/30 03:29:16;;;;;;;;;;;;;;;28.82;45.17;100251.19;5032110;28;19917;-84
2023/08/30 03:31:43;;;;;;;;;;;;;;;28.82;44.50;100245.81;5015549;28;20298;-84
2023/08/30 03:34:09;;;;;;;;;;;;;;;28.76;44.82;100252.25;5010570;28;19924;-84
2023/08/30 03:36:35;;;;;;;;;;;;;;;28.80;45.58;100250.38;5035479;28;20330;-84
2023/08/30 03:39:00;;;;;;;;;;;;;;;28.76;45.11;100246.88;5022111;28;19939;-84
2023/08/30 03:41:26;;;;;;;;;;;;;;;28.79;45.69;100244.13;5031158;28;20386;-84
2023/08/30 03:43:51;;;;;;;;;;;;;;;28.72;45.40;100253.25;5017010;28;20402;-84
2023/08/30 03:46:17;;;;;;;;;;;;;;;28.69;45.89;100258.75;5051345;28;19928;-85
2023/08/30 03:48:42;;;;;;;;;;;;;;;28.70;46.21;100259.63;5059634;28;20487;-85
2023/08/30 03:51:08;;;;;;;;;;;;;;;28.71;46.36;100270.34;5059707;28;19917;-84
2023/08/30 03:53:33;;;;;;;;;;;;;;;28.71;46.05;100266.78;5067554;28;19916;-84
2023/08/30 03:56:04;;;;;;;;;;;;;;;28.67;46.54;100274.03;5067784;28;19974;-90
2023/08/30 03:58:34;;;;;;;;;;;;;;;28.67;46.66;100275.84;5057229;28;19967;-90
2023/08/30 04:01:00;;;;;;;;;;;;;;;28.62;46.32;100290.28;5067611;28;19917;-90
2023/08/30 04:03:26;;;;;;;;;;;;;;;28.65;46.60;100291.13;5060323;28;19916;-88
2023/08/30 04:05:55;;;;;;;;;;;;;;;28.62;47.14;100284.91;5063492;28;20348;-91
2023/08/30 04:08:22;;;;;;;;;;;;;;;28.62;46.67;100286.72;5062441;28;19927;-90
2023/08/30 04:10:49;;;;;;;;;;;;;;;28.65;46.44;100286.63;5033900;28;19924;-90
2023/08/30 04:13:15;;;;;;;;;;;;;;;28.63;46.88;100291.16;5084700;28;19923;-90
2023/08/30 04:15:41;;;;;;;;;;;;;;;28.61;46.84;100288.50;5074385;28;19920;-90
2023/08/30 04:18:06;;;;;;;;;;;;;;;28.62;46.76;100286.72;5064365;28;20000;-88
2023/08/30 04:20:34;;;;;;;;;;;;;;;28.62;47.20;100294.78;5075351;28;19951;-90
2023/08/30 04:23:03;;;;;;;;;;;;;;;28.64;46.87;100298.31;5040293;28;19970;-91
2023/08/30 04:25:29;;;;;;;;;;;;;;;28.65;46.67;100297.38;5072161;28;19925;-90
2023/08/30 04:27:55;;;;;;;;;;;;;;;28.63;46.94;100300.09;5038205;28;20291;-91
2023/08/30 04:30:21;;;;;;;;;;;;;;;28.62;46.88;100306.41;5038323;28;19917;-90
2023/08/30 04:32:47;;;;;;;;;;;;;;;28.59;47.03;100298.41;5055413;28;19970;-89
2023/08/30 04:35:13;;;;;;;;;;;;;;;28.58;46.90;100298.47;5040770;28;19912;-89
2023/08/30 04:37:39;;;;;;;;;;;;;;;28.60;47.02;100296.63;5048550;28;19935;-89
2023/08/30 04:40:09;;;;;;;;;;;;;;;28.60;47.03;100288.56;5041506;28;20373;-89
2023/08/30 04:42:36;;;;;;;;;;;;;;;28.59;47.15;100293.03;5068571;28;20424;-91
2023/08/30 04:45:02;;;;;;;;;;;;;;;28.59;47.28;100292.16;5047237;28;19925;-91
2023/08/30 04:47:29;;;;;;;;;;;;;;;28.57;47.21;100289.50;5045684;28;19956;-88
2023/08/30 04:49:55;;;;;;;;;;;;;;;28.57;47.18;100284.13;5056586;28;19995;-91
2023/08/30 04:52:20;;;;;;;;;;;;;;;28.55;47.21;100288.66;5048918;28;19944;-90
2023/08/30 04:54:48;;;;;;;;;;;;;;;28.54;47.44;100292.31;5036340;28;19913;-89
2023/08/30 04:57:16;;;;;;;;;;;;;;;28.53;47.41;100297.72;5074272;28;19967;-88
2023/08/30 04:59:41;;;;;;;;;;;;;;;28.53;47.35;100303.09;5061309;28;19971;-91
2023/08/30 05:02:07;;;;;;;;;;;;;;;28.54;47.37;100302.19;5048659;28;20373;-88
2023/08/30 05:04:32;;;;;;;;;;;;;;;28.52;47.55;100307.59;5061790;28;19917;-87
2023/08/30 05:06:58;;;;;;;;;;;;;;;28.52;47.67;100304.88;5044930;28;19964;-90
2023/08/30 05:09:24;;;;;;;;;;;;;;;28.49;47.63;100309.47;5047108;28;19973;-89
2023/08/30 05:11:50;;;;;;;;;;;;;;;28.51;47.41;100307.63;5040401;28;19917;-89
2023/08/30 05:14:16;;;;;;;;;;;;;;;28.50;47.54;100311.25;5055183;28;19940;-86
2023/08/30 05:16:41;;;;;;;;;;;;;;;28.45;47.67;100311.34;5069943;28;19917;-88
2023/08/30 05:19:07;;;;;;;;;;;;;;;28.48;47.64;100313.06;5045941;28;20432;-86
2023/08/30 05:21:33;;;;;;;;;;;;;;;28.46;47.92;100309.53;5034137;28;20389;-90
2023/08/30 05:24:00;;;;;;;;;;;;;;;28.46;47.73;100321.16;5040110;28;19923;-88
2023/08/30 05:26:26;;;;;;;;;;;;;;;28.46;47.59;100323.81;5068754;28;19924;-88
2023/08/30 05:28:51;;;;;;;;;;;;;;;28.48;47.90;100326.47;5055372;28;19917;-88
2023/08/30 05:31:17;;;;;;;;;;;;;;;28.45;47.88;100329.22;5069990;28;19920;-88
2023/08/30 05:33:43;;;;;;;;;;;;;;;28.44;47.93;100328.34;5044990;28;19924;-89
2023/08/30 05:36:10;;;;;;;;;;;;;;;28.43;47.98;100327.47;5057767;28;19966;-89
2023/08/30 05:38:35;;;;;;;;;;;;;;;28.43;47.97;100329.28;5062423;28;19916;-88
2023/08/30 05:41:01;;;;;;;;;;;;;;;28.43;48.14;100324.81;5053963;28;19943;-89
2023/08/30 05:43:26;;;;;;;;;;;;;;;28.43;48.19;100330.16;5058740;28;20015;-90
2023/08/30 05:45:51;;;;;;;;;;;;;;;28.40;47.89;100330.22;5046948;28;19924;-88
2023/08/30 05:48:17;;;;;;;;;;;;;;;28.40;48.09;100329.34;5060411;28;19932;-88
2023/08/30 05:50:42;;;;;;;;;;;;;;;28.42;47.93;100330.19;5052592;28;19920;-91
2023/08/30 05:53:08;;;;;;;;;;;;;;;28.40;48.27;100334.72;5039664;28;19916;-89
2023/08/30 05:55:34;;;;;;;;;;;;;;;28.40;47.98;100340.97;5056633;28;19923;-89
2023/08/30 05:58:00;;;;;;;;;;;;;;;28.37;48.32;100337.50;5047609;28;19916;-89
2023/08/30 06:00:25;;;;;;;;;;;;;;;28.36;48.17;100333.94;5066910;28;19916;-91
2023/08/30 06:02:51;;;;;;;;;;;;;;;28.34;48.35;100333.13;5051424;28;20408;-88
2023/08/30 06:05:17;;;;;;;;;;;;;;;28.31;48.39;100337.66;5040947;28;20348;-91
2023/08/30 06:07:48;;;;;;;;;;;;;;;28.33;48.30;100346.56;5046240;28;19986;-91
2023/08/30 06:10:13;;;;;;;;;;;;;;;28.31;48.46;100343.91;5060124;28;19924;-89
2023/08/30 06:12:39;;;;;;;;;;;;;;;28.29;48.39;100337.69;5078917;28;19924;-89
2023/08/30 06:15:05;;;;;;;;;;;;;;;28.27;48.51;100336.84;5065379;28;19917;-88
2023/08/30 06:17:30;;;;;;;;;;;;;;;28.28;48.18;100335.94;5039845;28;20421;-88
2023/08/30 06:19:56;;;;;;;;;;;;;;;28.22;48.08;100334.31;5055312;28;20336;-88
2023/08/30 06:22:21;;;;;;;;;;;;;;;28.22;48.17;100336.13;5049526;28;19952;-89
2023/08/30 06:24:46;;;;;;;;;;;;;;;28.22;48.20;100334.31;5059595;28;20317;-89
2023/08/30 06:27:13;;;;;;;;;;;;;;;28.27;48.49;100336.84;5056351;28;21293;-90
2023/08/30 06:29:39;;;;;;;;;;;;;;;28.25;48.39;100341.38;5044251;28;20292;-89
2023/08/30 06:32:04;;;;;;;;;;;;;;;28.31;48.38;100340.34;5064836;28;19987;-89
2023/08/30 06:34:30;;;;;;;;;;;;;;;28.29;48.16;100340.38;5046512;28;19923;-86
2023/08/30 06:36:56;;;;;;;;;;;;;;;28.25;48.16;100338.69;5042385;28;19916;-90
2023/08/30 06:39:22;;;;;;;;;;;;;;;28.26;48.28;100340.47;5086383;28;20439;-89
2023/08/30 06:41:48;;;;;;;;;;;;;;;28.25;48.59;100341.38;5032602;28;19916;-90
2023/08/30 06:44:13;;;;;;;;;;;;;;;28.25;47.76;100348.56;5048459;28;19916;-92
2023/08/30 06:46:39;;;;;;;;;;;;;;;28.22;48.75;100342.34;5034614;28;19921;-89
2023/08/30 06:49:09;;;;;;;;;;;;;;;28.25;48.88;100340.50;5048952;28;19916;-92
2023/08/30 06:51:34;;;;;;;;;;;;;;;28.25;49.44;100338.69;5038928;28;19917;-88
2023/08/30 06:54:00;;;;;;;;;;;;;;;28.24;48.33;100339.63;5039562;28;19935;-90
2023/08/30 06:56:26;;;;;;;;;;;;;;;28.19;48.84;100347.81;5044223;28;19923;-89
2023/08/30 07:01:55;;;;;;;;;;;;;;;28.20;49.35;100348.69;5058412;28;19928;-90
2023/08/30 07:04:22;;;;;;;;;;;;;;;28.18;49.24;100355.91;5057690;28;19921;-91
2023/08/30 07:06:51;;;;;;;;;;;;;;;28.16;48.36;100347.00;5043063;28;20316;-90
2023/08/30 07:09:17;;;;;;;;;;;;;;;28.18;49.35;100348.72;5061676;28;20393;-93
2023/08/30 07:11:50;;;;;;;;;;;;;;;28.15;49.17;100351.50;5043604;28;19917;-90
2023/08/30 07:14:20;;;;;;;;;;;;;;;28.15;49.39;100351.50;5035202;28;20377;-89
2023/08/30 07:16:50;;;;;;;;;;;;;;;28.25;49.04;100345.88;5060516;28;19948;-93
2023/08/30 07:19:16;;;;;;;;;;;;;;;28.17;49.50;100346.97;5060908;28;20421;-92
2023/08/30 07:21:42;;;;;;;;;;;;;;;28.18;49.44;100348.72;5051814;28;19916;-91
2023/08/30 07:24:22;;;;;;;;;;;;;;;28.21;49.95;100359.41;5037282;28;19916;-91
2023/08/30 07:27:02;;;;;;;;;;;;;;;28.24;49.19;100363.81;5064269;28;19921;-93
2023/08/30 07:29:29;;;;;;;;;;;;;;;28.25;49.46;100357.50;5051046;28;19916;-88
2023/08/30 07:31:54;;;;;;;;;;;;;;;28.25;49.40;100353.94;5041242;28;20400;-89
2023/08/30 07:34:20;;;;;;;;;;;;;;;28.26;48.74;100353.00;5056621;28;19916;-91
2023/08/30 07:36:45;;;;;;;;;;;;;;;28.26;48.83;100351.22;5041773;28;20302;-88
2023/08/30 07:39:12;;;;;;;;;;;;;;;28.25;49.23;100368.25;5035321;28;19982;-89
2023/08/30 07:41:41;;;;;;;;;;;;;;;28.26;48.99;100359.28;5055500;28;19919;-89
2023/08/30 07:44:06;;;;;;;;;;;;;;;28.23;50.00;100364.72;5048811;28;19913;-88
2023/08/30 07:46:31;;;;;;;;;;;;;;;28.20;49.42;100362.13;5053658;28;19928;-89
2023/08/30 07:48:57;;;;;;;;;;;;;;;28.18;49.27;100364.84;5067201;28;19924;-90
2023/08/30 07:51:22;;;;;;;;;;;;;;;28.20;49.56;100363.00;5078297;28;20015;-90
2023/08/30 07:53:48;;;;;;;;;;;;;;;28.19;49.18;100361.25;5081078;28;19916;-88
2023/08/30 07:56:13;;;;;;;;;;;;;;;28.18;49.19;100363.97;5065667;28;20301;-88
2023/08/30 07:58:40;;;;;;;;;;;;;;;28.20;49.26;100359.44;5035849;28;20305;-88
2023/08/30 08:01:06;;;;;;;;;;;;;;;28.19;48.98;100358.56;5064101;28;19912;-88
2023/08/30 08:03:31;;;;;;;;;;;;;;;28.21;50.80;100358.50;5054884;28;19982;-87
2023/08/30 08:05:58;;;;;;;;;;;;;;;28.16;50.18;100363.13;5045561;28;19920;-88
2023/08/30 08:08:23;;;;;;;;;;;;;;;28.19;49.95;100353.19;5037084;28;19912;-88
2023/08/30 08:10:49;;;;;;;;;;;;;;;28.18;49.77;100356.78;5074756;28;19912;-87
2023/08/30 08:13:14;;;;;;;;;;;;;;;28.19;49.52;100358.56;5044023;28;19916;-86
2023/08/30 08:15:40;;;;;;;;;;;;;;;28.19;49.37;100358.56;5050581;28;19920;-91
2023/08/30 08:18:05;;;;;;;;;;;;;;;28.17;50.69;100351.44;5082622;28;19912;-89
2023/08/30 08:20:30;;;;;;;;;;;;;;;28.17;51.47;100354.13;5053891;28;19944;-89
2023/08/30 08:22:56;;;;;;;;;;;;;;;28.18;50.76;100355.91;5051681;28;19917;-88
2023/08/30 08:25:23;;;;;;;;;;;;;;;28.17;51.25;100351.44;5057555;28;20410;-87
2023/08/30 08:27:49;;;;;;;;;;;;;;;28.18;50.52;100351.41;5064205;28;19935;-88
2023/08/30 08:30:15;;;;;;;;;;;;;;;28.18;50.06;100354.09;5034179;28;20378;-87
2023/08/30 08:32:41;;;;;;;;;;;;;;;28.18;50.27;100354.09;5060661;28;19974;-88
2023/08/30 08:35:06;;;;;;;;;;;;;;;28.21;50.04;100348.66;5038937;28;19913;-88
2023/08/30 08:37:32;;;;;;;;;;;;;;;28.19;50.14;100357.66;5070433;28;20296;-87
2023/08/30 08:39:57;;;;;;;;;;;;;;;28.19;53.10;100358.56;5035342;28;19923;-87
2023/08/30 08:42:23;;;;;;;;;;;;;;;28.19;51.28;100355.88;5068555;28;19917;-86
2023/08/30 08:44:52;;;;;;;;;;;;;;;28.20;50.88;100352.25;5055166;28;19935;-88
2023/08/30 08:47:19;;;;;;;;;;;;;;;28.23;50.49;100353.97;5050785;28;20011;-87
2023/08/30 08:49:44;;;;;;;;;;;;;;;28.25;50.22;100353.94;5050573;28;20348;-87
2023/08/30 08:52:10;;;;;;;;;;;;;;;28.21;50.52;100348.66;5050776;28;20016;-86
2023/08/30 08:54:36;;;;;;;;;;;;;;;28.27;50.30;100357.47;5050204;28;20305;-87
2023/08/30 08:57:02;;;;;;;;;;;;;;;28.33;49.84;100360.88;5062276;28;20462;-87
2023/08/30 08:59:27;;;;;;;;;;;;;;;28.35;49.65;100358.16;5058950;28;20384;-87
2023/08/30 09:01:53;;;;;;;;;;;;;;;28.35;49.59;100361.72;5064926;28;19912;-86
2023/08/30 09:04:18;;;;;;;;;;;;;;;28.32;50.50;100356.44;5068188;28;19924;-87
2023/08/30 09:06:44;;;;;;;;;;;;;;;28.36;50.05;100352.75;5054969;28;19917;-87
2023/08/30 09:09:09;;;;;;;;;;;;;;;28.37;49.68;100351.81;5067569;28;20397;-88
2023/08/30 09:11:36;;;;;;;;;;;;;;;28.37;49.50;100354.50;5053860;28;20378;-88
2023/08/30 09:14:01;;;;;;;;;;;;;;;28.34;50.54;100357.28;5037669;28;19970;-88
2023/08/30 09:16:27;;;;;;;;;;;;;;;28.37;50.02;100353.63;5054090;28;19916;-88
2023/08/30 09:18:59;;;;;;;;;;;;;;;28.40;49.66;100349.03;5059053;28;20079;-89
2023/08/30 09:21:24;;;;;;;;;;;;;;;28.39;49.45;100347.28;5065487;28;19917;-88
2023/08/30 09:24:03;;;;;;;;;;;;;;;28.41;49.85;100342.75;5037271;28;19990;-88
2023/08/30 09:26:29;;;;;;;;;;;;;;;28.37;49.65;100343.75;5055702;28;19999;-88
2023/08/30 09:28:56;;;;;;;;;;;;;;;28.39;49.44;100349.09;5056175;28;20015;-89
2023/08/30 09:31:22;;;;;;;;;;;;;;;28.42;49.53;100349.00;5045488;28;19923;-87
2023/08/30 09:33:50;;;;;;;;;;;;;;;28.38;49.93;100345.50;5053820;28;19913;-88
2023/08/30 09:36:16;;;;;;;;;;;;;;;28.39;49.38;100346.41;5053954;28;19913;-88
2023/08/30 09:38:47;;;;;;;;;;;;;;;28.38;49.22;100342.81;5056231;28;20489;-87
2023/08/30 09:41:13;;;;;;;;;;;;;;;28.39;49.33;100349.09;5036659;28;19917;-87
2023/08/30 09:43:42;;;;;;;;;;;;;;;28.40;49.00;100348.16;5092968;28;19966;-88
2023/08/30 09:46:07;;;;;;;;;;;;;;;28.40;49.07;100340.97;5050083;28;19928;-88
2023/08/30 09:48:32;;;;;;;;;;;;;;;28.39;49.37;100341.03;5072307;28;19916;-87
2023/08/30 09:50:59;;;;;;;;;;;;;;;28.37;49.25;100343.75;5041170;28;20393;-89
2023/08/30 09:53:31;;;;;;;;;;;;;;;28.38;49.37;100341.94;5070822;28;19917;-90
2023/08/30 09:56:01;;;;;;;;;;;;;;;28.40;49.19;100340.97;5051779;28;19971;-89
2023/08/30 09:58:27;;;;;;;;;;;;;;;28.40;49.16;100335.59;5074159;28;19917;-88
2023/08/30 10:00:53;;;;;;;;;;;;;;;28.42;49.12;100335.56;5085441;28;20357;-88
2023/08/30 10:03:19;;;;;;;;;;;;;;;28.41;48.82;100334.69;5077908;28;19947;-89
2023/08/30 10:05:45;;;;;;;;;;;;;;;28.39;48.98;100339.22;5043763;28;20287;-87
2023/08/30 10:08:12;;;;;;;;;;;;;;;28.40;49.03;100342.78;5033473;28;19917;-88
2023/08/30 10:10:37;;;;;;;;;;;;;;;28.40;49.18;100340.09;5035727;28;19924;-86
2023/08/30 10:13:03;;;;;;;;;;;;;;;28.39;49.19;100344.59;5026838;28;19913;-88
2023/08/30 10:15:29;;;;;;;;;;;;;;;28.39;48.94;100333.84;5044847;28;20287;-88
2023/08/30 10:17:57;;;;;;;;;;;;;;;28.43;49.22;100334.66;5033136;28;19917;-87
2023/08/30 10:20:22;;;;;;;;;;;;;;;28.40;49.43;100338.28;5038980;28;19913;-87
2023/08/30 10:22:48;;;;;;;;;;;;;;;28.40;49.07;100342.78;5033358;28;19924;-89
2023/08/30 10:25:16;;;;;;;;;;;;;;;28.40;49.28;100340.97;5069966;28;19913;-88
2023/08/30 10:27:43;;;;;;;;;;;;;;;28.42;49.08;100339.13;5084030;28;19968;-88
2023/08/30 10:30:09;;;;;;;;;;;;;;;28.41;49.21;100342.75;5084406;28;20391;-88
2023/08/30 10:32:44;;;;;;;;;;;;;;;28.42;49.10;100347.19;5087245;28;19913;-89
2023/08/30 10:35:13;;;;;;;;;;;;;;;28.43;49.08;100348.09;5077157;28;19960;-89
2023/08/30 10:37:39;;;;;;;;;;;;;;;28.43;48.97;100346.28;5074557;28;20385;-91
2023/08/30 10:40:05;;;;;;;;;;;;;;;28.30;49.22;100330.53;5052987;28;19919;-89
2023/08/30 10:42:31;;;;;;;;;;;;;;;28.43;48.98;100343.59;5052566;28;20447;-90
2023/08/30 10:44:57;;;;;;;;;;;;;;;28.43;49.33;100346.28;5088404;28;19920;-87
2023/08/30 10:47:30;;;;;;;;;;;;;;;28.43;49.45;100346.28;5066453;28;19921;-88
2023/08/30 10:49:56;;;;;;;;;;;;;;;28.45;49.27;100348.03;5094266;28;19917;-86
2023/08/30 10:52:23;;;;;;;;;;;;;;;28.44;49.46;100344.47;5054806;28;19940;-90
2023/08/30 10:54:50;;;;;;;;;;;;;;;28.45;49.19;100343.56;5042754;28;19957;-88
2023/08/30 10:57:20;;;;;;;;;;;;;;;28.42;49.06;100344.50;5037366;28;20003;-90
2023/08/30 11:00:04;;;;;;;;;;;;;;;28.45;49.02;100340.88;5038391;28;19998;-90
2023/08/30 11:02:31;;;;;;;;;;;;;;;28.45;49.13;100329.22;5064879;28;19975;-89
2023/08/30 11:04:57;;;;;;;;;;;;;;;28.44;49.39;100328.34;5055814;28;19936;-89
2023/08/30 11:07:24;;;;;;;;;;;;;;;28.45;49.10;100324.75;5093193;28;20405;-88
2023/08/30 11:10:17;;;;;;;;;;;;;;;28.45;49.01;100324.75;5053772;28;20408;-87
2023/08/30 11:12:45;;;;;;;;;;;;;;;28.45;49.07;100318.47;5047455;28;19917;-88
2023/08/30 11:15:11;;;;;;;;;;;;;;;28.43;48.87;100319.44;5066248;28;19913;-87
2023/08/30 11:17:37;;;;;;;;;;;;;;;28.46;48.98;100314.91;5060021;28;19974;-88
2023/08/30 11:20:09;;;;;;;;;;;;;;;28.46;49.31;100306.84;5048859;28;20424;-87
2023/08/30 11:22:36;;;;;;;;;;;;;;;28.49;49.15;100306.78;5033657;28;19939;-88
2023/08/30 11:25:01;;;;;;;;;;;;;;;28.49;49.53;100309.47;5044042;28;19913;-86
2023/08/30 11:27:27;;;;;;;;;;;;;;;28.49;49.24;100306.78;5039188;28;19974;-87
2023/08/30 11:29:54;;;;;;;;;;;;;;;28.51;48.70;100302.25;5054161;28;20405;-87
2023/08/30 11:32:20;;;;;;;;;;;;;;;28.52;49.25;100298.66;5032945;28;20437;-86
2023/08/30 11:34:55;;;;;;;;;;;;;;;28.53;48.78;100286.97;5066848;28;20011;-86
2023/08/30 11:37:21;;;;;;;;;;;;;;;28.54;49.96;100286.94;5031805;28;19920;-87
2023/08/30 11:39:46;;;;;;;;;;;;;;;28.53;48.94;100290.56;5078762;28;19917;-88
2023/08/30 11:42:12;;;;;;;;;;;;;;;28.55;48.71;100288.66;5082853;28;20442;-88
2023/08/30 11:44:37;;;;;;;;;;;;;;;28.55;48.65;100291.38;5067096;28;20472;-88
2023/08/30 11:47:02;;;;;;;;;;;;;;;28.56;48.95;100286.91;5068258;28;19988;-88
2023/08/30 11:49:30;;;;;;;;;;;;;;;28.59;48.46;100276.91;5077470;28;21414;-85
2023/08/30 11:51:57;;;;;;;;;;;;;;;28.60;48.58;100280.50;5038389;28;19917;-87
2023/08/30 11:54:25;;;;;;;;;;;;;;;28.60;48.23;100272.44;5046983;28;19924;-86
2023/08/30 11:56:51;;;;;;;;;;;;;;;28.59;48.28;100268.88;5075860;28;19923;-86
2023/08/30 11:59:20;;;;;;;;;;;;;;;28.59;48.62;100262.63;5057680;28;19913;-89
2023/08/30 12:01:48;;;;;;;;;;;;;;;28.60;48.79;100253.66;5036108;28;20410;-87
2023/08/30 12:04:13;;;;;;;;;;;;;;;28.62;48.52;100246.44;5065424;28;19940;-86
2023/08/30 12:06:39;;;;;;;;;;;;;;;28.63;48.78;100250.84;5069183;28;20382;-86
2023/08/30 12:09:08;;;;;;;;;;;;;;;28.60;48.86;100246.47;5061187;28;20309;-86
2023/08/30 12:11:33;;;;;;;;;;;;;;;28.63;48.71;100240.09;5072291;28;19924;-87
2023/08/30 12:14:02;;;;;;;;;;;;;;;28.60;49.45;100245.59;5046088;28;20339;-86
2023/08/30 12:16:27;;;;;;;;;;;;;;;28.63;49.06;100242.81;5077564;28;19917;-87
2023/08/30 12:18:53;;;;;;;;;;;;;;;28.60;48.65;100249.16;5052810;28;20062;-89
2023/08/30 12:21:18;;;;;;;;;;;;;;;28.59;49.20;100249.19;5062337;28;19917;-86
2023/08/30 12:23:44;;;;;;;;;;;;;;;28.63;48.90;100248.16;5050741;28;20340;-86
2023/08/30 12:26:10;;;;;;;;;;;;;;;28.61;49.00;100248.22;5056713;28;19921;-86
2023/08/30 12:28:36;;;;;;;;;;;;;;;28.60;49.22;100241.09;5062044;28;19913;-86
2023/08/30 12:31:06;;;;;;;;;;;;;;;28.61;49.48;100239.28;5047683;28;19921;-88
2023/08/30 12:33:36;;;;;;;;;;;;;;;28.62;49.10;100235.69;5039299;28;19917;-90
2023/08/30 12:36:01;;;;;;;;;;;;;;;28.61;49.40;100242.84;5050178;28;19916;-88